sensor_id;sensor_type;location;lat;lon;timestamp;P1;durP1;ratioP1;P2;durP2;ratioP2
64936;SDS011;51452;47.698;19.050;2023-11-19T00:01:48;5.97;;;3.57;;
64936;SDS011;51452;47.698;19.050;2023-11-19T00:04:14;6.57;;;3.70;;
64936;SDS011;51452;47.698;19.050;2023-11-19T00:06:43;6.00;;;3.70;;
64936;SDS011;51452;47.698;19.050;2023-11-19T00:09:08;6.30;;;3.77;;
64936;SDS011;51452;47.698;19.050;2023-11-19T00:11:34;7.60;;;3.53;;
64936;SDS011;51452;47.698;19.050;2023-11-19T00:14:02;6.33;;;4.00;;
64936;SDS011;51452;47.698;19.050;2023-11-19T00:16:29;7.33;;;3.93;;
64936;SDS011;51452;47.698;19.050;2023-11-19T00:18:57;9.33;;;4.87;;
64936;SDS011;51452;47.698;19.050;2023-11-19T00:21:22;9.87;;;4.80;;
64936;SDS011;51452;47.698;19.050;2023-11-19T00:23:48;11.07;;;6.20;;
64936;SDS011;51452;47.698;19.050;2023-11-19T00:26:15;11.67;;;5.80;;
64936;SDS011;51452;47.698;19.050;2023-11-19T00:28:41;8.30;;;4.97;;
64936;SDS011;51452;47.698;19.050;2023-11-19T00:31:08;9.87;;;5.10;;
64936;SDS011;51452;47.698;19.050;2023-11-19T00:33:36;7.73;;;4.70;;
64936;SDS011;51452;47.698;19.050;2023-11-19T00:36:02;7.87;;;4.13;;
64936;SDS011;51452;47.698;19.050;2023-11-19T00:38:28;8.93;;;4.30;;
64936;SDS011;51452;47.698;19.050;2023-11-19T00:40:53;7.60;;;4.70;;
64936;SDS011;51452;47.698;19.050;2023-11-19T00:43:19;7.80;;;4.37;;
64936;SDS011;51452;47.698;19.050;2023-11-19T00:45:47;12.90;;;4.77;;
64936;SDS011;51452;47.698;19.050;2023-11-19T00:48:15;15.30;;;8.10;;
64936;SDS011;51452;47.698;19.050;2023-11-19T00:50:41;22.07;;;9.80;;
64936;SDS011;51452;47.698;19.050;2023-11-19T00:53:09;16.07;;;7.90;;
64936;SDS011;51452;47.698;19.050;2023-11-19T00:55:34;18.40;;;7.80;;
64936;SDS011;51452;47.698;19.050;2023-11-19T00:58:00;12.60;;;6.00;;
64936;SDS011;51452;47.698;19.050;2023-11-19T01:00:25;15.57;;;6.70;;
64936;SDS011;51452;47.698;19.050;2023-11-19T01:02:52;13.33;;;6.30;;
64936;SDS011;51452;47.698;19.050;2023-11-19T01:05:18;17.70;;;7.77;;
64936;SDS011;51452;47.698;19.050;2023-11-19T01:07:46;17.97;;;8.23;;
64936;SDS011;51452;47.698;19.050;2023-11-19T01:10:14;20.67;;;8.50;;
64936;SDS011;51452;47.698;19.050;2023-11-19T01:12:43;22.10;;;10.33;;
64936;SDS011;51452;47.698;19.050;2023-11-19T01:15:12;25.40;;;9.70;;
64936;SDS011;51452;47.698;19.050;2023-11-19T01:17:47;29.33;;;10.02;;
64936;SDS011;51452;47.698;19.050;2023-11-19T01:20:13;14.13;;;5.77;;
64936;SDS011;51452;47.698;19.050;2023-11-19T01:22:49;12.67;;;5.20;;
64936;SDS011;51452;47.698;19.050;2023-11-19T01:25:17;7.17;;;4.13;;
64936;SDS011;51452;47.698;19.050;2023-11-19T01:27:43;9.77;;;4.67;;
64936;SDS011;51452;47.698;19.050;2023-11-19T01:30:08;8.07;;;4.33;;
64936;SDS011;51452;47.698;19.050;2023-11-19T01:32:37;11.33;;;5.60;;
64936;SDS011;51452;47.698;19.050;2023-11-19T01:35:03;8.50;;;4.67;;
64936;SDS011;51452;47.698;19.050;2023-11-19T01:37:29;12.37;;;5.27;;
64936;SDS011;51452;47.698;19.050;2023-11-19T01:39:56;12.27;;;5.30;;
64936;SDS011;51452;47.698;19.050;2023-11-19T01:42:22;11.23;;;5.57;;
64936;SDS011;51452;47.698;19.050;2023-11-19T01:44:59;9.90;;;4.57;;
64936;SDS011;51452;47.698;19.050;2023-11-19T01:47:26;10.77;;;4.70;;
64936;SDS011;51452;47.698;19.050;2023-11-19T01:49:52;10.60;;;4.63;;
64936;SDS011;51452;47.698;19.050;2023-11-19T01:52:18;8.60;;;4.10;;
64936;SDS011;51452;47.698;19.050;2023-11-19T01:54:45;9.73;;;4.23;;
64936;SDS011;51452;47.698;19.050;2023-11-19T01:57:11;7.73;;;4.23;;
64936;SDS011;51452;47.698;19.050;2023-11-19T01:59:37;8.27;;;4.43;;
64936;SDS011;51452;47.698;19.050;2023-11-19T02:02:03;8.77;;;4.77;;
64936;SDS011;51452;47.698;19.050;2023-11-19T02:04:30;7.97;;;4.07;;
64936;SDS011;51452;47.698;19.050;2023-11-19T02:06:56;8.50;;;4.40;;
64936;SDS011;51452;47.698;19.050;2023-11-19T02:09:24;6.30;;;3.97;;
64936;SDS011;51452;47.698;19.050;2023-11-19T02:11:49;7.70;;;3.97;;
64936;SDS011;51452;47.698;19.050;2023-11-19T02:14:16;10.10;;;4.63;;
64936;SDS011;51452;47.698;19.050;2023-11-19T02:16:42;8.67;;;4.27;;
64936;SDS011;51452;47.698;19.050;2023-11-19T02:19:08;8.73;;;4.73;;
64936;SDS011;51452;47.698;19.050;2023-11-19T02:21:40;7.73;;;4.37;;
64936;SDS011;51452;47.698;19.050;2023-11-19T02:24:07;7.53;;;4.03;;
64936;SDS011;51452;47.698;19.050;2023-11-19T02:29:16;6.70;;;4.17;;
64936;SDS011;51452;47.698;19.050;2023-11-19T02:31:42;6.93;;;4.27;;
64936;SDS011;51452;47.698;19.050;2023-11-19T02:34:09;7.47;;;4.30;;
64936;SDS011;51452;47.698;19.050;2023-11-19T02:36:36;7.37;;;4.27;;
64936;SDS011;51452;47.698;19.050;2023-11-19T02:39:01;9.83;;;4.60;;
64936;SDS011;51452;47.698;19.050;2023-11-19T02:41:27;10.50;;;4.80;;
64936;SDS011;51452;47.698;19.050;2023-11-19T02:43:52;12.20;;;5.33;;
64936;SDS011;51452;47.698;19.050;2023-11-19T02:46:18;10.50;;;4.73;;
64936;SDS011;51452;47.698;19.050;2023-11-19T02:48:44;9.57;;;5.23;;
64936;SDS011;51452;47.698;19.050;2023-11-19T02:51:11;9.60;;;4.60;;
64936;SDS011;51452;47.698;19.050;2023-11-19T02:53:37;11.40;;;4.40;;
64936;SDS011;51452;47.698;19.050;2023-11-19T02:56:03;7.70;;;4.63;;
64936;SDS011;51452;47.698;19.050;2023-11-19T02:58:42;16.63;;;7.43;;
64936;SDS011;51452;47.698;19.050;2023-11-19T03:01:09;18.27;;;7.17;;
64936;SDS011;51452;47.698;19.050;2023-11-19T03:03:44;15.80;;;7.57;;
64936;SDS011;51452;47.698;19.050;2023-11-19T03:06:17;9.57;;;5.23;;
64936;SDS011;51452;47.698;19.050;2023-11-19T03:08:43;8.00;;;4.33;;
64936;SDS011;51452;47.698;19.050;2023-11-19T03:11:09;7.10;;;4.20;;
64936;SDS011;51452;47.698;19.050;2023-11-19T03:13:34;7.63;;;4.20;;
64936;SDS011;51452;47.698;19.050;2023-11-19T03:15:59;10.10;;;5.70;;
64936;SDS011;51452;47.698;19.050;2023-11-19T03:18:25;9.27;;;5.03;;
64936;SDS011;51452;47.698;19.050;2023-11-19T03:20:50;8.43;;;4.57;;
64936;SDS011;51452;47.698;19.050;2023-11-19T03:23:19;7.37;;;4.20;;
64936;SDS011;51452;47.698;19.050;2023-11-19T03:25:44;7.90;;;4.80;;
64936;SDS011;51452;47.698;19.050;2023-11-19T03:28:10;13.13;;;6.83;;
64936;SDS011;51452;47.698;19.050;2023-11-19T03:30:36;8.67;;;4.33;;
64936;SDS011;51452;47.698;19.050;2023-11-19T03:33:03;7.17;;;4.47;;
64936;SDS011;51452;47.698;19.050;2023-11-19T03:35:28;7.53;;;4.17;;
64936;SDS011;51452;47.698;19.050;2023-11-19T03:37:55;8.70;;;4.90;;
64936;SDS011;51452;47.698;19.050;2023-11-19T03:40:20;11.97;;;5.70;;
64936;SDS011;51452;47.698;19.050;2023-11-19T03:42:47;10.17;;;4.97;;
64936;SDS011;51452;47.698;19.050;2023-11-19T03:45:16;8.60;;;4.53;;
64936;SDS011;51452;47.698;19.050;2023-11-19T03:47:43;6.77;;;3.63;;
64936;SDS011;51452;47.698;19.050;2023-11-19T03:50:09;7.27;;;4.00;;
64936;SDS011;51452;47.698;19.050;2023-11-19T03:52:35;6.93;;;4.03;;
64936;SDS011;51452;47.698;19.050;2023-11-19T03:55:01;7.20;;;3.97;;
64936;SDS011;51452;47.698;19.050;2023-11-19T03:57:37;9.37;;;4.90;;
64936;SDS011;51452;47.698;19.050;2023-11-19T04:00:04;11.00;;;4.67;;
64936;SDS011;51452;47.698;19.050;2023-11-19T04:02:36;7.73;;;4.33;;
64936;SDS011;51452;47.698;19.050;2023-11-19T04:05:02;8.03;;;4.73;;
64936;SDS011;51452;47.698;19.050;2023-11-19T04:07:31;10.63;;;5.20;;
64936;SDS011;51452;47.698;19.050;2023-11-19T04:09:57;9.67;;;5.63;;
64936;SDS011;51452;47.698;19.050;2023-11-19T04:12:22;8.97;;;5.17;;
64936;SDS011;51452;47.698;19.050;2023-11-19T04:14:48;9.57;;;4.73;;
64936;SDS011;51452;47.698;19.050;2023-11-19T04:17:14;6.03;;;3.93;;
64936;SDS011;51452;47.698;19.050;2023-11-19T04:19:48;12.43;;;4.40;;
64936;SDS011;51452;47.698;19.050;2023-11-19T04:22:13;9.07;;;4.10;;
64936;SDS011;51452;47.698;19.050;2023-11-19T04:24:41;7.87;;;4.60;;
64936;SDS011;51452;47.698;19.050;2023-11-19T04:27:09;9.93;;;5.47;;
64936;SDS011;51452;47.698;19.050;2023-11-19T04:29:34;10.27;;;5.87;;
64936;SDS011;51452;47.698;19.050;2023-11-19T04:32:00;13.23;;;6.93;;
64936;SDS011;51452;47.698;19.050;2023-11-19T04:34:26;18.13;;;9.07;;
64936;SDS011;51452;47.698;19.050;2023-11-19T04:36:51;17.67;;;8.80;;
64936;SDS011;51452;47.698;19.050;2023-11-19T04:39:17;12.60;;;7.07;;
64936;SDS011;51452;47.698;19.050;2023-11-19T04:41:49;10.83;;;5.73;;
64936;SDS011;51452;47.698;19.050;2023-11-19T04:44:18;9.17;;;5.27;;
64936;SDS011;51452;47.698;19.050;2023-11-19T04:46:44;8.00;;;4.90;;
64936;SDS011;51452;47.698;19.050;2023-11-19T04:49:10;11.53;;;5.17;;
64936;SDS011;51452;47.698;19.050;2023-11-19T04:51:40;9.37;;;5.70;;
64936;SDS011;51452;47.698;19.050;2023-11-19T04:54:10;10.27;;;5.47;;
64936;SDS011;51452;47.698;19.050;2023-11-19T04:56:36;9.37;;;5.50;;
64936;SDS011;51452;47.698;19.050;2023-11-19T04:59:02;8.47;;;5.40;;
64936;SDS011;51452;47.698;19.050;2023-11-19T05:01:31;10.23;;;5.40;;
64936;SDS011;51452;47.698;19.050;2023-11-19T05:03:58;10.07;;;5.87;;
64936;SDS011;51452;47.698;19.050;2023-11-19T05:06:27;10.97;;;5.63;;
64936;SDS011;51452;47.698;19.050;2023-11-19T05:08:54;12.87;;;6.17;;
64936;SDS011;51452;47.698;19.050;2023-11-19T05:11:20;10.40;;;5.40;;
64936;SDS011;51452;47.698;19.050;2023-11-19T05:13:46;9.83;;;6.07;;
64936;SDS011;51452;47.698;19.050;2023-11-19T05:16:12;10.43;;;5.33;;
64936;SDS011;51452;47.698;19.050;2023-11-19T05:18:39;13.90;;;5.97;;
64936;SDS011;51452;47.698;19.050;2023-11-19T05:21:05;11.70;;;5.67;;
64936;SDS011;51452;47.698;19.050;2023-11-19T05:23:33;10.97;;;5.80;;
64936;SDS011;51452;47.698;19.050;2023-11-19T05:26:00;11.50;;;6.27;;
64936;SDS011;51452;47.698;19.050;2023-11-19T05:28:30;10.57;;;5.80;;
64936;SDS011;51452;47.698;19.050;2023-11-19T05:30:56;11.27;;;6.63;;
64936;SDS011;51452;47.698;19.050;2023-11-19T05:33:24;10.27;;;5.70;;
64936;SDS011;51452;47.698;19.050;2023-11-19T05:35:49;10.83;;;5.93;;
64936;SDS011;51452;47.698;19.050;2023-11-19T05:38:15;10.73;;;5.97;;
64936;SDS011;51452;47.698;19.050;2023-11-19T05:40:41;9.00;;;5.43;;
64936;SDS011;51452;47.698;19.050;2023-11-19T05:43:09;10.53;;;5.87;;
64936;SDS011;51452;47.698;19.050;2023-11-19T05:45:35;10.90;;;6.33;;
64936;SDS011;51452;47.698;19.050;2023-11-19T05:48:00;9.67;;;5.70;;
64936;SDS011;51452;47.698;19.050;2023-11-19T05:50:28;12.37;;;5.83;;
64936;SDS011;51452;47.698;19.050;2023-11-19T05:52:53;10.30;;;5.97;;
64936;SDS011;51452;47.698;19.050;2023-11-19T05:55:19;11.23;;;6.40;;
64936;SDS011;51452;47.698;19.050;2023-11-19T05:57:44;13.13;;;5.70;;
64936;SDS011;51452;47.698;19.050;2023-11-19T06:00:10;10.40;;;6.33;;
64936;SDS011;51452;47.698;19.050;2023-11-19T06:02:38;11.40;;;5.83;;
64936;SDS011;51452;47.698;19.050;2023-11-19T06:05:04;8.90;;;5.70;;
64936;SDS011;51452;47.698;19.050;2023-11-19T06:07:31;10.60;;;6.00;;
64936;SDS011;51452;47.698;19.050;2023-11-19T06:09:57;15.50;;;7.93;;
64936;SDS011;51452;47.698;19.050;2023-11-19T06:12:22;15.43;;;8.33;;
64936;SDS011;51452;47.698;19.050;2023-11-19T06:14:48;14.93;;;7.53;;
64936;SDS011;51452;47.698;19.050;2023-11-19T06:17:13;20.50;;;8.73;;
64936;SDS011;51452;47.698;19.050;2023-11-19T06:19:41;23.60;;;10.50;;
64936;SDS011;51452;47.698;19.050;2023-11-19T06:22:07;18.73;;;9.43;;
64936;SDS011;51452;47.698;19.050;2023-11-19T06:24:32;16.97;;;8.03;;
64936;SDS011;51452;47.698;19.050;2023-11-19T06:26:58;14.70;;;7.07;;
64936;SDS011;51452;47.698;19.050;2023-11-19T06:29:23;15.03;;;7.33;;
64936;SDS011;51452;47.698;19.050;2023-11-19T06:31:49;14.93;;;7.63;;
64936;SDS011;51452;47.698;19.050;2023-11-19T06:34:24;14.30;;;7.20;;
64936;SDS011;51452;47.698;19.050;2023-11-19T06:36:49;13.40;;;6.57;;
64936;SDS011;51452;47.698;19.050;2023-11-19T06:39:15;12.40;;;6.67;;
64936;SDS011;51452;47.698;19.050;2023-11-19T06:41:46;11.70;;;6.57;;
64936;SDS011;51452;47.698;19.050;2023-11-19T06:44:12;16.43;;;8.00;;
64936;SDS011;51452;47.698;19.050;2023-11-19T06:46:51;9.63;;;5.50;;
64936;SDS011;51452;47.698;19.050;2023-11-19T06:49:26;13.07;;;6.93;;
64936;SDS011;51452;47.698;19.050;2023-11-19T06:52:12;12.57;;;6.60;;
64936;SDS011;51452;47.698;19.050;2023-11-19T06:54:44;13.30;;;6.70;;
64936;SDS011;51452;47.698;19.050;2023-11-19T06:57:15;13.97;;;7.20;;
64936;SDS011;51452;47.698;19.050;2023-11-19T06:59:41;11.03;;;6.30;;
64936;SDS011;51452;47.698;19.050;2023-11-19T07:02:07;12.70;;;7.40;;
64936;SDS011;51452;47.698;19.050;2023-11-19T07:04:35;13.10;;;7.10;;
64936;SDS011;51452;47.698;19.050;2023-11-19T07:07:03;11.10;;;6.70;;
64936;SDS011;51452;47.698;19.050;2023-11-19T07:09:28;10.67;;;6.30;;
64936;SDS011;51452;47.698;19.050;2023-11-19T07:11:54;12.37;;;6.93;;
64936;SDS011;51452;47.698;19.050;2023-11-19T07:14:20;14.00;;;7.57;;
64936;SDS011;51452;47.698;19.050;2023-11-19T07:16:46;10.07;;;6.10;;
64936;SDS011;51452;47.698;19.050;2023-11-19T07:19:12;11.03;;;6.30;;
64936;SDS011;51452;47.698;19.050;2023-11-19T07:21:40;11.57;;;6.57;;
64936;SDS011;51452;47.698;19.050;2023-11-19T07:24:09;13.17;;;7.23;;
64936;SDS011;51452;47.698;19.050;2023-11-19T07:26:35;12.60;;;6.87;;
64936;SDS011;51452;47.698;19.050;2023-11-19T07:29:02;11.80;;;6.83;;
64936;SDS011;51452;47.698;19.050;2023-11-19T07:31:38;11.43;;;6.23;;
64936;SDS011;51452;47.698;19.050;2023-11-19T07:34:03;11.40;;;6.17;;
64936;SDS011;51452;47.698;19.050;2023-11-19T07:36:34;12.57;;;6.40;;
64936;SDS011;51452;47.698;19.050;2023-11-19T07:39:03;9.87;;;5.90;;
64936;SDS011;51452;47.698;19.050;2023-11-19T07:41:30;13.17;;;6.33;;
64936;SDS011;51452;47.698;19.050;2023-11-19T07:43:58;10.93;;;6.33;;
64936;SDS011;51452;47.698;19.050;2023-11-19T07:46:27;12.30;;;7.20;;
64936;SDS011;51452;47.698;19.050;2023-11-19T07:48:55;9.03;;;5.83;;
64936;SDS011;51452;47.698;19.050;2023-11-19T07:51:20;11.47;;;6.47;;
64936;SDS011;51452;47.698;19.050;2023-11-19T07:53:46;11.03;;;6.60;;
64936;SDS011;51452;47.698;19.050;2023-11-19T07:56:16;11.40;;;5.80;;
64936;SDS011;51452;47.698;19.050;2023-11-19T07:58:44;10.20;;;5.83;;
64936;SDS011;51452;47.698;19.050;2023-11-19T08:01:09;10.37;;;5.97;;
64936;SDS011;51452;47.698;19.050;2023-11-19T08:03:35;11.40;;;6.40;;
64936;SDS011;51452;47.698;19.050;2023-11-19T08:06:01;12.73;;;6.33;;
64936;SDS011;51452;47.698;19.050;2023-11-19T08:08:27;11.20;;;6.90;;
64936;SDS011;51452;47.698;19.050;2023-11-19T08:10:55;11.53;;;6.53;;
64936;SDS011;51452;47.698;19.050;2023-11-19T08:13:21;10.33;;;6.50;;
64936;SDS011;51452;47.698;19.050;2023-11-19T08:15:48;21.50;;;11.10;;
64936;SDS011;51452;47.698;19.050;2023-11-19T08:18:14;15.40;;;8.63;;
64936;SDS011;51452;47.698;19.050;2023-11-19T08:20:39;13.13;;;7.87;;
64936;SDS011;51452;47.698;19.050;2023-11-19T08:23:06;15.47;;;8.40;;
64936;SDS011;51452;47.698;19.050;2023-11-19T08:25:32;15.67;;;8.17;;
64936;SDS011;51452;47.698;19.050;2023-11-19T08:28:00;13.33;;;7.87;;
64936;SDS011;51452;47.698;19.050;2023-11-19T08:30:26;14.10;;;8.03;;
64936;SDS011;51452;47.698;19.050;2023-11-19T08:32:52;15.37;;;8.90;;
64936;SDS011;51452;47.698;19.050;2023-11-19T08:35:17;13.83;;;9.13;;
64936;SDS011;51452;47.698;19.050;2023-11-19T08:37:50;13.63;;;8.70;;
64936;SDS011;51452;47.698;19.050;2023-11-19T08:40:18;15.17;;;8.50;;
64936;SDS011;51452;47.698;19.050;2023-11-19T08:42:43;15.93;;;9.07;;
64936;SDS011;51452;47.698;19.050;2023-11-19T08:45:11;13.67;;;8.40;;
64936;SDS011;51452;47.698;19.050;2023-11-19T08:47:37;13.73;;;7.33;;
64936;SDS011;51452;47.698;19.050;2023-11-19T08:50:19;12.53;;;7.10;;
64936;SDS011;51452;47.698;19.050;2023-11-19T08:52:46;12.33;;;7.47;;
64936;SDS011;51452;47.698;19.050;2023-11-19T08:55:12;17.90;;;8.13;;
64936;SDS011;51452;47.698;19.050;2023-11-19T08:57:38;12.83;;;7.87;;
64936;SDS011;51452;47.698;19.050;2023-11-19T09:00:04;14.00;;;8.13;;
64936;SDS011;51452;47.698;19.050;2023-11-19T09:02:34;14.97;;;8.90;;
64936;SDS011;51452;47.698;19.050;2023-11-19T09:05:02;16.17;;;8.90;;
64936;SDS011;51452;47.698;19.050;2023-11-19T09:07:29;30.37;;;17.67;;
64936;SDS011;51452;47.698;19.050;2023-11-19T09:09:59;18.33;;;11.13;;
64936;SDS011;51452;47.698;19.050;2023-11-19T09:12:24;14.43;;;7.83;;
64936;SDS011;51452;47.698;19.050;2023-11-19T09:14:50;12.27;;;7.37;;
64936;SDS011;51452;47.698;19.050;2023-11-19T09:17:15;17.50;;;7.80;;
64936;SDS011;51452;47.698;19.050;2023-11-19T09:19:42;12.83;;;7.17;;
64936;SDS011;51452;47.698;19.050;2023-11-19T09:22:08;14.27;;;8.00;;
64936;SDS011;51452;47.698;19.050;2023-11-19T09:24:33;14.33;;;7.50;;
64936;SDS011;51452;47.698;19.050;2023-11-19T09:27:06;13.03;;;7.77;;
64936;SDS011;51452;47.698;19.050;2023-11-19T09:29:34;13.27;;;7.70;;
64936;SDS011;51452;47.698;19.050;2023-11-19T09:32:02;14.43;;;8.00;;
64936;SDS011;51452;47.698;19.050;2023-11-19T09:34:28;15.43;;;8.50;;
64936;SDS011;51452;47.698;19.050;2023-11-19T09:36:53;15.80;;;8.50;;
64936;SDS011;51452;47.698;19.050;2023-11-19T09:39:21;19.73;;;10.23;;
64936;SDS011;51452;47.698;19.050;2023-11-19T09:41:50;19.63;;;10.67;;
64936;SDS011;51452;47.698;19.050;2023-11-19T09:44:15;20.13;;;10.30;;
64936;SDS011;51452;47.698;19.050;2023-11-19T09:46:43;19.47;;;10.40;;
64936;SDS011;51452;47.698;19.050;2023-11-19T09:49:09;17.37;;;9.37;;
64936;SDS011;51452;47.698;19.050;2023-11-19T09:51:41;18.93;;;10.37;;
64936;SDS011;51452;47.698;19.050;2023-11-19T09:54:06;17.33;;;9.73;;
64936;SDS011;51452;47.698;19.050;2023-11-19T09:56:34;17.83;;;9.53;;
64936;SDS011;51452;47.698;19.050;2023-11-19T09:59:02;18.77;;;11.10;;
64936;SDS011;51452;47.698;19.050;2023-11-19T10:01:28;17.40;;;9.57;;
64936;SDS011;51452;47.698;19.050;2023-11-19T10:03:57;20.77;;;10.47;;
64936;SDS011;51452;47.698;19.050;2023-11-19T10:06:22;20.17;;;10.63;;
64936;SDS011;51452;47.698;19.050;2023-11-19T10:08:51;21.13;;;11.23;;
64936;SDS011;51452;47.698;19.050;2023-11-19T10:11:17;17.43;;;10.53;;
64936;SDS011;51452;47.698;19.050;2023-11-19T10:13:42;18.47;;;10.43;;
64936;SDS011;51452;47.698;19.050;2023-11-19T10:16:09;18.10;;;10.67;;
64936;SDS011;51452;47.698;19.050;2023-11-19T10:18:37;19.83;;;10.10;;
64936;SDS011;51452;47.698;19.050;2023-11-19T10:21:08;20.73;;;11.47;;
64936;SDS011;51452;47.698;19.050;2023-11-19T10:23:57;19.07;;;10.53;;
64936;SDS011;51452;47.698;19.050;2023-11-19T10:26:26;18.30;;;10.30;;
64936;SDS011;51452;47.698;19.050;2023-11-19T10:28:55;18.37;;;11.03;;
64936;SDS011;51452;47.698;19.050;2023-11-19T10:31:24;22.87;;;11.27;;
64936;SDS011;51452;47.698;19.050;2023-11-19T10:33:52;19.17;;;11.10;;
64936;SDS011;51452;47.698;19.050;2023-11-19T10:36:21;19.90;;;9.93;;
64936;SDS011;51452;47.698;19.050;2023-11-19T10:38:55;16.87;;;9.57;;
64936;SDS011;51452;47.698;19.050;2023-11-19T10:41:31;15.83;;;9.07;;
64936;SDS011;51452;47.698;19.050;2023-11-19T10:43:57;17.20;;;9.80;;
64936;SDS011;51452;47.698;19.050;2023-11-19T10:49:05;16.07;;;9.30;;
64936;SDS011;51452;47.698;19.050;2023-11-19T10:51:31;18.53;;;10.30;;
64936;SDS011;51452;47.698;19.050;2023-11-19T10:54:04;21.27;;;10.90;;
64936;SDS011;51452;47.698;19.050;2023-11-19T10:56:31;20.17;;;10.97;;
64936;SDS011;51452;47.698;19.050;2023-11-19T10:59:00;19.00;;;10.10;;
64936;SDS011;51452;47.698;19.050;2023-11-19T11:01:31;18.53;;;9.07;;
64936;SDS011;51452;47.698;19.050;2023-11-19T11:04:06;21.30;;;11.70;;
64936;SDS011;51452;47.698;19.050;2023-11-19T11:06:40;20.92;;;12.05;;
64936;SDS011;51452;47.698;19.050;2023-11-19T11:09:09;21.53;;;11.20;;
64936;SDS011;51452;47.698;19.050;2023-11-19T11:11:40;21.53;;;11.57;;
64936;SDS011;51452;47.698;19.050;2023-11-19T11:14:08;21.07;;;11.37;;
64936;SDS011;51452;47.698;19.050;2023-11-19T11:16:42;23.57;;;12.27;;
64936;SDS011;51452;47.698;19.050;2023-11-19T11:19:12;21.20;;;12.00;;
64936;SDS011;51452;47.698;19.050;2023-11-19T11:21:42;22.60;;;12.63;;
64936;SDS011;51452;47.698;19.050;2023-11-19T11:24:24;20.17;;;11.40;;
64936;SDS011;51452;47.698;19.050;2023-11-19T11:33:40;20.47;;;11.80;;
64936;SDS011;51452;47.698;19.050;2023-11-19T11:36:24;21.67;;;11.10;;
64936;SDS011;51452;47.698;19.050;2023-11-19T11:38:51;19.40;;;10.97;;
64936;SDS011;51452;47.698;19.050;2023-11-19T11:43:49;18.87;;;11.53;;
64936;SDS011;51452;47.698;19.050;2023-11-19T11:48:59;17.97;;;10.87;;
64936;SDS011;51452;47.698;19.050;2023-11-19T11:54:10;18.93;;;10.57;;
64936;SDS011;51452;47.698;19.050;2023-11-19T11:57:04;22.02;;;10.80;;
64936;SDS011;51452;47.698;19.050;2023-11-19T11:59:53;20.07;;;10.67;;
64936;SDS011;51452;47.698;19.050;2023-11-19T12:04:47;19.20;;;10.70;;
64936;SDS011;51452;47.698;19.050;2023-11-19T12:07:18;20.40;;;10.87;;
64936;SDS011;51452;47.698;19.050;2023-11-19T12:09:53;20.70;;;11.20;;
64936;SDS011;51452;47.698;19.050;2023-11-19T12:12:35;18.23;;;11.23;;
64936;SDS011;51452;47.698;19.050;2023-11-19T12:15:07;18.07;;;10.50;;
64936;SDS011;51452;47.698;19.050;2023-11-19T12:17:36;18.67;;;11.03;;
64936;SDS011;51452;47.698;19.050;2023-11-19T12:20:04;19.33;;;10.60;;
64936;SDS011;51452;47.698;19.050;2023-11-19T12:22:37;20.60;;;11.87;;
64936;SDS011;51452;47.698;19.050;2023-11-19T12:25:04;19.27;;;11.57;;
64936;SDS011;51452;47.698;19.050;2023-11-19T12:27:31;24.30;;;12.27;;
64936;SDS011;51452;47.698;19.050;2023-11-19T12:30:00;18.93;;;10.83;;
64936;SDS011;51452;47.698;19.050;2023-11-19T12:32:26;20.50;;;10.87;;
64936;SDS011;51452;47.698;19.050;2023-11-19T12:34:51;18.63;;;10.90;;
64936;SDS011;51452;47.698;19.050;2023-11-19T12:37:17;18.00;;;10.93;;
64936;SDS011;51452;47.698;19.050;2023-11-19T12:39:45;20.37;;;11.40;;
64936;SDS011;51452;47.698;19.050;2023-11-19T12:42:15;21.13;;;11.67;;
64936;SDS011;51452;47.698;19.050;2023-11-19T12:44:53;18.33;;;11.30;;
64936;SDS011;51452;47.698;19.050;2023-11-19T12:47:24;17.23;;;10.90;;
64936;SDS011;51452;47.698;19.050;2023-11-19T12:49:56;16.47;;;10.83;;
64936;SDS011;51452;47.698;19.050;2023-11-19T12:52:22;18.67;;;10.50;;
64936;SDS011;51452;47.698;19.050;2023-11-19T12:54:48;17.73;;;10.50;;
64936;SDS011;51452;47.698;19.050;2023-11-19T12:57:14;15.70;;;10.23;;
64936;SDS011;51452;47.698;19.050;2023-11-19T12:59:41;16.87;;;10.93;;
64936;SDS011;51452;47.698;19.050;2023-11-19T13:02:06;20.23;;;11.60;;
64936;SDS011;51452;47.698;19.050;2023-11-19T13:04:33;17.33;;;10.87;;
64936;SDS011;51452;47.698;19.050;2023-11-19T13:07:01;18.17;;;10.47;;
64936;SDS011;51452;47.698;19.050;2023-11-19T13:09:30;16.10;;;9.57;;
64936;SDS011;51452;47.698;19.050;2023-11-19T13:12:11;17.57;;;10.30;;
64936;SDS011;51452;47.698;19.050;2023-11-19T13:14:38;19.67;;;10.70;;
64936;SDS011;51452;47.698;19.050;2023-11-19T13:17:03;19.13;;;10.47;;
64936;SDS011;51452;47.698;19.050;2023-11-19T13:19:33;17.67;;;11.33;;
64936;SDS011;51452;47.698;19.050;2023-11-19T13:22:01;15.33;;;10.80;;
64936;SDS011;51452;47.698;19.050;2023-11-19T13:24:30;20.87;;;11.27;;
64936;SDS011;51452;47.698;19.050;2023-11-19T13:26:57;20.90;;;11.07;;
64936;SDS011;51452;47.698;19.050;2023-11-19T13:29:23;18.90;;;11.20;;
64936;SDS011;51452;47.698;19.050;2023-11-19T13:31:48;19.97;;;11.43;;
64936;SDS011;51452;47.698;19.050;2023-11-19T13:34:21;17.43;;;10.57;;
64936;SDS011;51452;47.698;19.050;2023-11-19T13:36:47;17.00;;;10.63;;
64936;SDS011;51452;47.698;19.050;2023-11-19T13:39:15;16.73;;;9.67;;
64936;SDS011;51452;47.698;19.050;2023-11-19T13:41:47;15.60;;;9.95;;
64936;SDS011;51452;47.698;19.050;2023-11-19T13:44:13;17.63;;;9.87;;
64936;SDS011;51452;47.698;19.050;2023-11-19T13:46:46;17.10;;;9.87;;
64936;SDS011;51452;47.698;19.050;2023-11-19T13:49:14;15.77;;;10.03;;
64936;SDS011;51452;47.698;19.050;2023-11-19T13:51:40;16.93;;;9.97;;
64936;SDS011;51452;47.698;19.050;2023-11-19T13:54:06;17.83;;;10.27;;
64936;SDS011;51452;47.698;19.050;2023-11-19T13:56:36;14.93;;;9.97;;
64936;SDS011;51452;47.698;19.050;2023-11-19T13:59:11;15.20;;;9.77;;
64936;SDS011;51452;47.698;19.050;2023-11-19T14:01:36;15.10;;;9.20;;
64936;SDS011;51452;47.698;19.050;2023-11-19T14:04:02;18.07;;;9.80;;
64936;SDS011;51452;47.698;19.050;2023-11-19T14:06:28;17.90;;;9.83;;
64936;SDS011;51452;47.698;19.050;2023-11-19T14:08:56;17.77;;;10.27;;
64936;SDS011;51452;47.698;19.050;2023-11-19T14:11:21;16.97;;;9.80;;
64936;SDS011;51452;47.698;19.050;2023-11-19T14:13:47;15.17;;;9.60;;
64936;SDS011;51452;47.698;19.050;2023-11-19T14:16:14;16.40;;;10.23;;
64936;SDS011;51452;47.698;19.050;2023-11-19T14:18:40;14.93;;;9.27;;
64936;SDS011;51452;47.698;19.050;2023-11-19T14:21:08;15.87;;;9.50;;
64936;SDS011;51452;47.698;19.050;2023-11-19T14:23:33;17.43;;;10.20;;
64936;SDS011;51452;47.698;19.050;2023-11-19T14:25:59;16.60;;;9.70;;
64936;SDS011;51452;47.698;19.050;2023-11-19T14:28:24;17.77;;;10.20;;
64936;SDS011;51452;47.698;19.050;2023-11-19T14:30:58;17.03;;;9.97;;
64936;SDS011;51452;47.698;19.050;2023-11-19T14:33:24;19.40;;;10.17;;
64936;SDS011;51452;47.698;19.050;2023-11-19T14:35:50;16.47;;;9.97;;
64936;SDS011;51452;47.698;19.050;2023-11-19T14:38:16;17.03;;;10.00;;
64936;SDS011;51452;47.698;19.050;2023-11-19T14:40:48;20.60;;;10.67;;
64936;SDS011;51452;47.698;19.050;2023-11-19T14:43:13;17.23;;;9.87;;
64936;SDS011;51452;47.698;19.050;2023-11-19T14:45:40;20.60;;;10.93;;
64936;SDS011;51452;47.698;19.050;2023-11-19T14:48:11;17.10;;;10.63;;